createdAt,value
2022-10-19T00:00:47.808Z,97076.56
2022-10-19T00:03:18.245Z,97064.00
2022-10-19T00:05:47.416Z,97065.31
2022-10-19T00:08:13.995Z,97064.81
2022-10-19T00:10:41.345Z,97067.13
2022-10-19T00:13:08.462Z,97075.47
2022-10-19T00:15:39.421Z,97067.78
2022-10-19T00:18:06.766Z,97066.53
2022-10-19T00:20:34.165Z,97071.00
2022-10-19T00:23:00.746Z,97062.66
2022-10-19T00:25:27.427Z,97068.09
2022-10-19T00:27:54.016Z,97063.28
2022-10-19T00:30:20.839Z,97061.66
2022-10-19T00:32:47.414Z,97064.06
2022-10-19T00:35:14.011Z,97061.16
2022-10-19T00:37:40.631Z,97061.69
2022-10-19T00:40:08.041Z,97055.91
2022-10-19T00:42:34.755Z,97052.34
2022-10-19T00:45:06.573Z,97050.13
2022-10-19T00:47:34.152Z,97042.19
2022-10-19T00:50:01.139Z,97052.09
2022-10-19T00:52:28.011Z,97053.16
2022-10-19T00:54:56.996Z,97059.41
2022-10-19T00:57:26.526Z,97046.00
2022-10-19T00:59:53.187Z,97044.56
2022-10-19T01:02:19.835Z,97036.75
2022-10-19T01:04:51.861Z,97037.84
2022-10-19T01:07:19.796Z,97038.00
2022-10-19T01:09:46.734Z,97033.38
2022-10-19T01:12:36.974Z,97034.16
2022-10-19T01:15:33.710Z,97039.63
2022-10-19T01:18:34.982Z,97038.81
2022-10-19T01:21:26.162Z,97033.16
2022-10-19T01:24:11.928Z,97027.78
2022-10-19T01:26:56.467Z,97027.13
2022-10-19T01:29:38.678Z,97024.91
2022-10-19T01:32:24.152Z,97037.22
2022-10-19T01:35:06.611Z,97031.78
2022-10-19T01:37:44.082Z,97031.16
2022-10-19T01:40:43.186Z,97032.25
2022-10-19T01:43:19.063Z,97029.25
2022-10-19T01:45:53.995Z,97027.00
2022-10-19T01:48:29.274Z,97029.38
2022-10-19T01:51:07.764Z,97028.75
2022-10-19T01:53:41.710Z,97032.09
2022-10-19T01:56:09.686Z,97039.94
2022-10-19T01:58:39.608Z,97034.22
2022-10-19T02:03:42.375Z,97039.44
2022-10-19T02:06:11.590Z,97030.81
2022-10-19T02:08:43.971Z,97031.78
2022-10-19T02:11:10.829Z,97030.03
2022-10-19T02:13:39.846Z,97030.50
2022-10-19T02:16:10.982Z,97034.97
2022-10-19T02:18:43.403Z,97020.09
2022-10-19T02:21:10.706Z,97020.75
2022-10-19T02:23:37.532Z,97019.97
2022-10-19T02:26:04.792Z,97022.50
2022-10-19T02:28:31.670Z,97018.06
2022-10-19T02:30:59.184Z,97014.84
2022-10-19T02:33:26.988Z,97010.03
2022-10-19T02:35:53.633Z,97002.03
2022-10-19T02:38:22.590Z,96999.81
2022-10-19T02:41:02.283Z,97000.09
2022-10-19T02:43:32.059Z,96996.91
2022-10-19T02:46:08.719Z,97000.78
2022-10-19T02:48:38.103Z,96998.72
2022-10-19T02:51:04.746Z,97003.00
2022-10-19T02:53:31.390Z,97000.63
2022-10-19T02:55:58.079Z,96991.34
2022-10-19T02:58:24.713Z,97001.88
2022-10-19T03:00:51.358Z,97004.31
2022-10-19T03:03:17.971Z,97002.84
2022-10-19T03:05:44.600Z,97009.44
2022-10-19T03:08:11.211Z,96999.00
2022-10-19T03:10:37.797Z,97006.72
2022-10-19T03:13:04.382Z,97003.19
2022-10-19T03:15:30.977Z,97008.59
2022-10-19T03:17:57.625Z,97009.25
2022-10-19T03:20:24.279Z,97013.72
2022-10-19T03:22:50.994Z,97014.84
2022-10-19T03:25:17.681Z,97015.50
2022-10-19T03:27:44.275Z,97021.22
2022-10-19T03:30:11.219Z,97015.13
2022-10-19T03:32:37.850Z,97026.22
2022-10-19T03:35:04.897Z,97021.44
2022-10-19T03:37:31.757Z,97022.69
2022-10-19T03:39:58.619Z,97019.47
2022-10-19T03:42:25.236Z,97019.00
2022-10-19T03:44:51.810Z,97010.19
2022-10-19T03:47:18.405Z,97013.09
2022-10-19T03:49:45.091Z,97008.31
2022-10-19T03:52:11.690Z,97011.97
2022-10-19T03:54:38.415Z,97014.03
2022-10-19T03:57:05.057Z,97015.97
2022-10-19T03:59:31.838Z,97012.03
2022-10-19T04:01:58.393Z,97005.72
2022-10-19T04:04:25.110Z,97008.00
2022-10-19T04:06:53.513Z,97001.13
2022-10-19T04:09:22.073Z,97004.63
2022-10-19T04:11:49.349Z,96999.84
2022-10-19T04:14:26.860Z,97010.22
2022-10-19T04:17:01.643Z,97009.25
2022-10-19T04:19:28.352Z,97002.22
2022-10-19T04:21:55.038Z,97006.56
2022-10-19T04:24:21.755Z,96999.22
2022-10-19T04:26:51.496Z,97005.13
2022-10-19T04:29:20.163Z,97004.63
2022-10-19T04:31:49.374Z,97000.00
2022-10-19T04:34:16.423Z,96990.72
2022-10-19T04:36:43.031Z,96988.03
2022-10-19T04:39:09.911Z,96989.59
2022-10-19T04:41:38.297Z,96984.16
2022-10-19T04:44:08.625Z,96978.25
2022-10-19T04:46:35.396Z,96972.66
2022-10-19T04:49:04.287Z,96975.22
2022-10-19T04:51:30.976Z,96967.06
2022-10-19T04:53:59.665Z,96962.28
2022-10-19T04:56:28.277Z,96961.47
2022-10-19T04:58:57.521Z,96960.84
2022-10-19T05:01:25.607Z,96967.09
2022-10-19T05:04:00.557Z,96959.28
2022-10-19T05:06:27.810Z,96963.25
2022-10-19T05:08:54.505Z,96959.66
2022-10-19T05:11:21.344Z,96954.31
2022-10-19T05:13:48.888Z,96949.72
2022-10-19T05:16:21.314Z,96961.97
2022-10-19T05:18:59.676Z,96953.88
2022-10-19T05:21:28.844Z,96958.97
2022-10-19T05:23:56.706Z,96950.66
2022-10-19T05:26:25.926Z,96952.41
2022-10-19T05:28:59.450Z,96950.03
2022-10-19T05:31:28.543Z,96951.91
2022-10-19T05:33:58.641Z,96948.72
2022-10-19T05:36:27.907Z,96951.63
2022-10-19T05:38:57.049Z,96951.28
2022-10-19T05:41:25.598Z,96956.72
2022-10-19T05:43:57.304Z,96948.72
2022-10-19T05:46:25.544Z,96947.78
2022-10-19T05:48:52.622Z,96943.91
2022-10-19T05:51:21.701Z,96942.50
2022-10-19T05:53:48.730Z,96947.78
2022-10-19T05:56:18.074Z,96940.88
2022-10-19T05:58:45.142Z,96943.63
2022-10-19T06:01:12.524Z,96939.63
2022-10-19T06:03:39.148Z,96931.78
2022-10-19T06:06:07.576Z,96930.34
2022-10-19T06:08:34.697Z,96935.91
2022-10-19T06:11:10.707Z,96937.53
2022-10-19T06:13:38.423Z,96950.13
2022-10-19T06:16:06.228Z,96943.75
2022-10-19T06:18:33.315Z,96950.78
2022-10-19T06:21:05.709Z,96956.34
2022-10-19T06:23:34.190Z,96957.50
2022-10-19T06:26:05.947Z,96959.38
2022-10-19T06:28:32.751Z,96956.69
2022-10-19T06:31:00.238Z,96959.84
2022-10-19T06:33:28.098Z,96970.72
2022-10-19T06:35:54.662Z,96979.06
2022-10-19T06:38:21.543Z,96981.94
2022-10-19T06:40:49.219Z,96980.66
2022-10-19T06:43:15.879Z,96984.81
2022-10-19T06:45:42.451Z,96983.66
2022-10-19T06:48:09.104Z,96993.91
2022-10-19T06:50:35.684Z,96993.75
2022-10-19T06:53:02.335Z,96990.09
2022-10-19T06:55:28.903Z,96998.72
2022-10-19T06:57:55.483Z,97005.91
2022-10-19T07:00:22.076Z,97006.84
2022-10-19T07:02:48.646Z,97010.69
2022-10-19T07:05:15.326Z,97011.63
2022-10-19T07:07:41.958Z,97009.88
2022-10-19T07:10:08.970Z,97014.94
2022-10-19T07:12:35.559Z,97011.91
2022-10-19T07:15:02.142Z,97020.19
2022-10-19T07:17:28.783Z,97017.63
2022-10-19T07:19:55.483Z,97025.41
2022-10-19T07:22:27.211Z,97031.03
2022-10-19T07:24:54.739Z,97033.75
2022-10-19T07:27:21.687Z,97028.94
2022-10-19T07:29:48.283Z,97020.19
2022-10-19T07:32:14.873Z,97025.00
2022-10-19T07:34:41.521Z,97022.75
2022-10-19T07:37:08.149Z,97029.25
2022-10-19T07:39:34.724Z,97034.03
2022-10-19T07:42:01.358Z,97031.09
2022-10-19T07:44:28.107Z,97037.25
2022-10-19T07:46:54.739Z,97034.84
2022-10-19T07:49:21.850Z,97036.00
2022-10-19T07:51:48.439Z,97032.06
2022-10-19T07:54:15.427Z,97034.88
2022-10-19T07:56:42.012Z,97033.94
2022-10-19T07:59:10.299Z,97037.94
2022-10-19T08:01:41.432Z,97033.50
2022-10-19T08:06:55.179Z,97037.69
2022-10-19T08:12:12.456Z,97027.28
2022-10-19T08:14:40.603Z,97031.63
2022-10-19T08:17:07.195Z,97031.50
2022-10-19T08:19:33.783Z,97033.63
2022-10-19T08:22:00.381Z,97036.00
2022-10-19T08:24:26.978Z,97037.34
2022-10-19T08:26:53.558Z,97036.56
2022-10-19T08:29:21.124Z,97043.91
2022-10-19T08:31:48.984Z,97048.88
2022-10-19T08:34:16.553Z,97042.31
2022-10-19T08:36:43.352Z,97034.66
2022-10-19T08:39:12.681Z,97039.31
2022-10-19T08:41:42.358Z,97040.88
2022-10-19T08:44:18.223Z,97042.31
2022-10-19T08:47:02.401Z,97042.50
2022-10-19T08:49:31.831Z,97040.56
2022-10-19T08:52:05.076Z,97038.81
2022-10-19T08:54:51.147Z,97041.31
2022-10-19T08:57:36.882Z,97034.13
2022-10-19T09:00:10.315Z,97030.94
2022-10-19T09:02:56.593Z,97038.09
2022-10-19T09:05:52.792Z,97027.34
2022-10-19T09:08:20.606Z,97013.88
2022-10-19T09:10:50.994Z,97030.50
2022-10-19T09:14:03.836Z,97021.72
2022-10-19T09:16:30.355Z,97029.69
2022-10-19T09:18:56.985Z,97018.81
2022-10-19T09:21:55.157Z,97026.34
2022-10-19T09:24:45.702Z,97024.13
2022-10-19T09:27:37.501Z,97020.44
2022-10-19T09:30:19.116Z,97021.09
2022-10-19T09:32:47.477Z,97015.78
2022-10-19T09:35:23.271Z,97020.75
2022-10-19T09:37:51.238Z,97015.66
2022-10-19T09:40:22.539Z,97020.25
2022-10-19T09:42:56.947Z,97028.59
2022-10-19T09:45:54.071Z,97018.84
2022-10-19T09:48:45.820Z,97024.97
2022-10-19T09:51:15.027Z,97025.22
2022-10-19T09:53:45.965Z,97018.94
2022-10-19T09:56:19.862Z,97030.88
2022-10-19T09:58:55.339Z,97029.44
2022-10-19T10:01:41.952Z,97022.75
2022-10-19T10:04:18.604Z,97025.34
2022-10-19T10:06:48.101Z,97032.72
2022-10-19T10:09:22.318Z,97032.00
2022-10-19T10:11:50.922Z,97025.38
2022-10-19T10:14:26.923Z,97026.97
2022-10-19T10:17:06.353Z,97027.34
2022-10-19T10:19:35.645Z,97023.63
2022-10-19T10:22:04.190Z,97020.00
2022-10-19T10:24:32.917Z,97022.53
2022-10-19T10:27:02.339Z,97017.16
2022-10-19T10:29:33.679Z,97016.50
2022-10-19T10:32:06.192Z,97020.53
2022-10-19T10:34:45.956Z,97011.06
2022-10-19T10:37:38.915Z,97013.19
2022-10-19T10:40:07.859Z,97009.47
2022-10-19T10:42:44.311Z,97010.00
2022-10-19T10:45:24.937Z,97013.56
2022-10-19T10:47:52.969Z,97009.19
2022-10-19T10:50:23.900Z,97006.81
2022-10-19T10:53:26.879Z,97004.41
2022-10-19T10:55:56.247Z,96998.78
2022-10-19T10:58:38.943Z,97005.69
2022-10-19T11:01:13.328Z,96996.63
2022-10-19T11:03:51.388Z,96986.47
2022-10-19T11:06:21.133Z,97002.63
2022-10-19T11:09:23.101Z,96996.91
2022-10-19T11:11:55.979Z,96991.06
2022-10-19T11:14:42.785Z,96988.09
2022-10-19T11:17:28.486Z,96983.81
2022-10-19T11:19:55.179Z,96983.28
2022-10-19T11:22:43.625Z,96979.53
2022-10-19T11:25:22.210Z,96971.88
2022-10-19T11:28:00.715Z,96967.91
2022-10-19T11:30:29.401Z,96963.50
2022-10-19T11:33:13.084Z,96964.91
2022-10-19T11:35:50.376Z,96955.91
2022-10-19T11:38:30.892Z,96959.13
2022-10-19T11:41:18.275Z,96959.97
2022-10-19T11:44:06.544Z,96957.78
2022-10-19T11:46:45.740Z,96954.50
2022-10-19T11:49:18.192Z,96961.34
2022-10-19T11:52:05.706Z,96946.16
2022-10-19T11:54:53.239Z,96941.34
2022-10-19T11:57:26.249Z,96928.38
2022-10-19T12:00:08.142Z,96931.84
2022-10-19T12:03:06.006Z,96918.88
2022-10-19T12:05:52.275Z,96914.09
2022-10-19T12:08:53.864Z,96913.25
2022-10-19T12:11:43.716Z,96906.47
2022-10-19T12:14:16.418Z,96907.81
2022-10-19T12:16:49.734Z,96899.84
2022-10-19T12:19:29.502Z,96894.16
2022-10-19T12:22:02.355Z,96897.31
2022-10-19T12:24:30.658Z,96891.31
2022-10-19T12:26:58.456Z,96886.09
2022-10-19T12:29:39.654Z,96886.50
2022-10-19T12:32:07.223Z,96873.78
2022-10-19T12:35:11.094Z,96869.53
2022-10-19T12:37:49.779Z,96864.59
2022-10-19T12:40:34.099Z,96851.81
2022-10-19T12:43:09.176Z,96848.34
2022-10-19T12:45:41.558Z,96851.72
2022-10-19T12:48:08.085Z,96835.69
2022-10-19T12:50:49.877Z,96841.72
2022-10-19T12:53:38.778Z,96833.28
2022-10-19T12:56:07.351Z,96827.44
2022-10-19T12:58:59.759Z,96832.56
2022-10-19T13:01:33.943Z,96830.59
2022-10-19T13:04:20.802Z,96834.66
2022-10-19T13:06:57.306Z,96829.97
2022-10-19T13:09:32.813Z,96827.16
2022-10-19T13:12:17.877Z,96826.59
2022-10-19T13:15:00.011Z,96822.94
2022-10-19T13:17:43.989Z,96820.97
2022-10-19T13:20:13.673Z,96818.69
2022-10-19T13:22:49.534Z,96814.09
2022-10-19T13:25:30.998Z,96805.69
2022-10-19T13:28:01.319Z,96811.09
2022-10-19T13:30:38.200Z,96796.69
2022-10-19T13:33:28.570Z,96800.38
2022-10-19T13:36:02.651Z,96796.19
2022-10-19T13:38:39.908Z,96796.06
2022-10-19T13:41:09.132Z,96795.78
2022-10-19T13:44:12.089Z,96791.44
2022-10-19T13:46:41.278Z,96798.28
2022-10-19T13:49:13.091Z,96789.56
2022-10-19T13:51:45.410Z,96805.22
2022-10-19T13:54:14.626Z,96803.84
2022-10-19T13:56:59.881Z,96800.47
2022-10-19T13:59:36.922Z,96795.69
2022-10-19T14:02:40.346Z,96794.91
2022-10-19T14:05:24.972Z,96788.59
2022-10-19T14:08:03.316Z,96785.06
2022-10-19T14:10:32.947Z,96785.25
2022-10-19T14:13:01.892Z,96781.69
2022-10-19T14:15:34.231Z,96776.63
2022-10-19T14:18:03.738Z,96776.28
2022-10-19T14:20:38.413Z,96769.31
2022-10-19T14:23:19.520Z,96765.34
2022-10-19T14:25:54.856Z,96769.97
2022-10-19T14:28:23.494Z,96764.66
2022-10-19T14:31:06.948Z,96766.31
2022-10-19T14:33:44.364Z,96765.94
2022-10-19T14:36:18.082Z,96760.56
2022-10-19T14:38:45.231Z,96765.88
2022-10-19T14:41:22.035Z,96768.75
2022-10-19T14:43:48.636Z,96757.97
2022-10-19T14:46:16.442Z,96756.13
2022-10-19T14:48:45.915Z,96764.38
2022-10-19T14:51:30.501Z,96760.41
2022-10-19T14:54:23.991Z,96760.63
2022-10-19T14:56:55.601Z,96764.09
2022-10-19T14:59:30.085Z,96756.41
2022-10-19T15:02:02.603Z,96756.47
2022-10-19T15:04:34.396Z,96759.88
2022-10-19T15:07:05.113Z,96762.56
2022-10-19T15:09:47.884Z,96752.44
2022-10-19T15:12:20.090Z,96750.22
2022-10-19T15:14:47.965Z,96758.66
2022-10-19T15:17:59.319Z,96759.50
2022-10-19T15:20:49.351Z,96767.53
2022-10-19T15:23:40.722Z,96756.75
2022-10-19T15:26:19.688Z,96762.63
2022-10-19T15:28:47.507Z,96759.66
2022-10-19T15:31:18.450Z,96753.13
2022-10-19T15:33:55.255Z,96756.94
2022-10-19T15:36:23.459Z,96759.25
2022-10-19T15:39:17.949Z,96766.94
2022-10-19T15:41:52.129Z,96766.25
2022-10-19T15:44:34.109Z,96761.38
2022-10-19T15:47:15.901Z,96773.19
2022-10-19T15:49:42.500Z,96764.97
2022-10-19T15:52:23.729Z,96762.94
2022-10-19T15:54:51.564Z,96763.25
2022-10-19T15:57:38.356Z,96762.50
2022-10-19T16:00:13.131Z,96763.38
2022-10-19T16:02:39.813Z,96774.56
2022-10-19T16:07:40.831Z,96778.41
2022-10-19T16:10:13.313Z,96778.56
2022-10-19T16:12:39.912Z,96785.22
2022-10-19T16:15:07.111Z,96779.09
2022-10-19T16:17:33.967Z,96784.78
2022-10-19T16:20:00.719Z,96787.91
2022-10-19T16:22:27.358Z,96781.16
2022-10-19T16:24:53.939Z,96783.75
2022-10-19T16:27:20.607Z,96789.00
2022-10-19T16:29:47.189Z,96795.00
2022-10-19T16:32:13.823Z,96797.03
2022-10-19T16:34:41.399Z,96791.59
2022-10-19T16:37:08.025Z,96795.69
2022-10-19T16:39:35.128Z,96798.94
2022-10-19T16:42:01.759Z,96798.78
2022-10-19T16:44:28.394Z,96794.34
2022-10-19T16:46:57.922Z,96805.72
2022-10-19T16:49:24.775Z,96798.47
2022-10-19T16:51:54.711Z,96795.47
2022-10-19T16:54:24.610Z,96794.59
2022-10-19T16:56:51.196Z,96792.78
2022-10-19T16:59:18.809Z,96797.81
2022-10-19T17:01:47.189Z,96793.28
2022-10-19T17:04:17.211Z,96792.38
2022-10-19T17:06:44.210Z,96782.81
2022-10-19T17:11:57.504Z,96781.69
2022-10-19T17:14:24.102Z,96786.47
2022-10-19T17:16:50.679Z,96787.16
2022-10-19T17:19:17.311Z,96787.16
2022-10-19T17:21:43.918Z,96795.78
2022-10-19T17:24:21.989Z,96800.78
2022-10-19T17:26:50.882Z,96794.41
2022-10-19T17:29:18.087Z,96788.44
2022-10-19T17:31:44.745Z,96784.50
2022-10-19T17:34:12.086Z,96785.00
2022-10-19T17:36:44.777Z,96790.88
2022-10-19T17:39:18.187Z,96789.97
2022-10-19T17:41:49.431Z,96790.44
2022-10-19T17:44:17.450Z,96785.50
2022-10-19T17:46:44.919Z,96787.63
2022-10-19T17:49:12.574Z,96792.44
2022-10-19T17:51:39.547Z,96789.41
2022-10-19T17:54:12.256Z,96787.50
2022-10-19T17:56:40.255Z,96789.06
2022-10-19T17:59:08.887Z,96789.03
2022-10-19T18:01:36.943Z,96790.09
2022-10-19T18:04:04.267Z,96787.84
2022-10-19T18:06:33.474Z,96789.44
2022-10-19T18:09:01.794Z,96792.69
2022-10-19T18:11:31.195Z,96789.38
2022-10-19T18:14:00.618Z,96803.06
2022-10-19T18:16:29.153Z,96802.69
2022-10-19T18:18:57.737Z,96805.63
2022-10-19T18:21:31.240Z,96810.94
2022-10-19T18:23:59.319Z,96822.78
2022-10-19T18:26:29.687Z,96821.84
2022-10-19T18:28:57.379Z,96813.75
2022-10-19T18:31:34.066Z,96822.16
2022-10-19T18:34:03.002Z,96812.06
2022-10-19T18:36:30.667Z,96810.72
2022-10-19T18:39:00.579Z,96810.00
2022-10-19T18:41:28.340Z,96811.56
2022-10-19T18:43:57.354Z,96811.00
2022-10-19T18:46:25.958Z,96807.63
2022-10-19T18:48:53.654Z,96800.44
2022-10-19T18:51:22.118Z,96805.25
2022-10-19T18:53:48.833Z,96798.38
2022-10-19T18:56:18.464Z,96802.84
2022-10-19T18:58:45.559Z,96797.13
2022-10-19T19:01:24.832Z,96795.03
2022-10-19T19:03:53.987Z,96785.28
2022-10-19T19:06:26.281Z,96793.38
2022-10-19T19:08:57.255Z,96788.47
2022-10-19T19:11:26.016Z,96788.13
2022-10-19T19:13:57.992Z,96793.88
2022-10-19T19:16:25.863Z,96802.13
2022-10-19T19:18:52.497Z,96794.69
2022-10-19T19:21:21.712Z,96784.31
2022-10-19T19:23:49.552Z,96800.19
2022-10-19T19:26:17.455Z,96794.69
2022-10-19T19:28:46.393Z,96803.44
2022-10-19T19:31:17.263Z,96801.91
2022-10-19T19:33:45.463Z,96799.00
2022-10-19T19:36:13.758Z,96802.44
2022-10-19T19:38:40.775Z,96799.66
2022-10-19T19:41:09.475Z,96798.28
2022-10-19T19:43:37.407Z,96797.31
2022-10-19T19:46:09.375Z,96808.19
2022-10-19T19:48:37.054Z,96796.56
2022-10-19T19:51:03.888Z,96798.06
2022-10-19T19:53:30.683Z,96803.19
2022-10-19T19:55:57.328Z,96804.31
2022-10-19T19:58:23.917Z,96802.41
2022-10-19T20:00:50.555Z,96804.81
2022-10-19T20:03:17.190Z,96798.81
2022-10-19T20:05:43.822Z,96813.41
2022-10-19T20:08:11.322Z,96808.81
2022-10-19T20:10:39.781Z,96808.41
2022-10-19T20:13:06.696Z,96810.97
2022-10-19T20:15:33.637Z,96799.09
2022-10-19T20:18:00.208Z,96818.72
2022-10-19T20:20:26.791Z,96810.81
2022-10-19T20:22:53.431Z,96814.41
2022-10-19T20:25:19.987Z,96815.22
2022-10-19T20:27:46.579Z,96818.81
2022-10-19T20:30:13.208Z,96812.72
2022-10-19T20:32:39.809Z,96810.22
2022-10-19T20:35:07.538Z,96812.31
2022-10-19T20:37:34.326Z,96817.63
2022-10-19T20:40:03.389Z,96812.63
2022-10-19T20:42:34.199Z,96817.81
2022-10-19T20:45:01.050Z,96810.13
2022-10-19T20:47:27.723Z,96805.41
2022-10-19T20:49:54.385Z,96807.72
2022-10-19T20:52:21.047Z,96806.63
2022-10-19T20:54:48.470Z,96811.22
2022-10-19T20:57:15.318Z,96822.94
2022-10-19T20:59:43.948Z,96824.00
2022-10-19T21:02:11.376Z,96812.13
2022-10-19T21:04:38.131Z,96811.22
2022-10-19T21:07:05.139Z,96817.19
2022-10-19T21:09:32.054Z,96828.72
2022-10-19T21:11:58.711Z,96820.75
2022-10-19T21:14:29.983Z,96816.66
2022-10-19T21:17:00.347Z,96819.53
2022-10-19T21:19:28.882Z,96810.44
2022-10-19T21:22:03.712Z,96816.50
2022-10-19T21:24:36.048Z,96819.34
2022-10-19T21:27:05.197Z,96819.03
2022-10-19T21:29:31.865Z,96816.41
2022-10-19T21:31:58.544Z,96819.50
2022-10-19T21:34:29.964Z,96813.41
2022-10-19T21:36:57.714Z,96819.78
2022-10-19T21:39:24.362Z,96820.47
2022-10-19T21:41:51.007Z,96826.53
2022-10-19T21:44:18.687Z,96823.44
2022-10-19T21:46:47.885Z,96825.44
2022-10-19T21:49:15.135Z,96810.72
2022-10-19T21:51:47.390Z,96802.94
2022-10-19T21:54:19.262Z,96815.44
2022-10-19T21:56:47.290Z,96816.31
2022-10-19T21:59:15.053Z,96807.41
2022-10-19T22:01:42.027Z,96815.50
2022-10-19T22:04:16.920Z,96811.72
2022-10-19T22:06:44.171Z,96819.00
2022-10-19T22:09:14.110Z,96817.00
2022-10-19T22:11:40.780Z,96800.94
2022-10-19T22:14:07.622Z,96799.25
2022-10-19T22:16:36.974Z,96808.69
2022-10-19T22:19:05.351Z,96800.19
2022-10-19T22:21:33.687Z,96808.66
2022-10-19T22:24:06.814Z,96800.22
2022-10-19T22:26:47.881Z,96810.28
2022-10-19T22:29:15.018Z,96798.56
2022-10-19T22:31:41.980Z,96800.72
2022-10-19T22:34:14.834Z,96802.91
2022-10-19T22:36:42.071Z,96808.16
2022-10-19T22:39:09.163Z,96800.66
2022-10-19T22:41:35.771Z,96803.69
2022-10-19T22:44:02.537Z,96803.69
2022-10-19T22:46:29.156Z,96800.47
2022-10-19T22:48:55.801Z,96800.00
2022-10-19T22:51:22.454Z,96807.63
2022-10-19T22:53:49.013Z,96806.69
2022-10-19T22:56:15.630Z,96809.16
2022-10-19T22:58:42.278Z,96807.13
2022-10-19T23:01:11.582Z,96803.41
2022-10-19T23:03:40.342Z,96809.44
2022-10-19T23:06:08.620Z,96809.09
2022-10-19T23:08:35.424Z,96804.44
2022-10-19T23:11:02.163Z,96800.88
2022-10-19T23:13:28.963Z,96812.66
2022-10-19T23:15:55.687Z,96806.78
2022-10-19T23:18:22.344Z,96811.28
2022-10-19T23:21:03.999Z,96808.53
2022-10-19T23:23:32.542Z,96809.81
2022-10-19T23:26:03.625Z,96805.72
2022-10-19T23:28:31.599Z,96801.00
2022-10-19T23:31:04.746Z,96806.38
2022-10-19T23:33:31.956Z,96806.69
2022-10-19T23:36:07.138Z,96810.88
2022-10-19T23:38:34.483Z,96803.13
2022-10-19T23:41:01.188Z,96809.91
2022-10-19T23:43:28.073Z,96803.88
2022-10-19T23:45:54.765Z,96799.91
2022-10-19T23:48:21.557Z,96798.00
2022-10-19T23:51:00.045Z,96794.09
2022-10-19T23:53:27.965Z,96796.50
2022-10-19T23:56:02.398Z,96801.59
2022-10-19T23:58:29.366Z,96792.03
